createdAt,value
2022-09-12T00:00:53.027Z,100.00
2022-09-12T00:03:19.975Z,100.00
2022-09-12T00:05:48.118Z,100.00
2022-09-12T00:08:15.416Z,100.00
2022-09-12T00:10:44.451Z,100.00
2022-09-12T00:13:12.152Z,100.00
2022-09-12T00:15:44.144Z,100.00
2022-09-12T00:18:14.999Z,100.00
2022-09-12T00:20:47.166Z,100.00
2022-09-12T00:23:14.822Z,100.00
2022-09-12T00:25:46.171Z,100.00
2022-09-12T00:28:15.140Z,100.00
2022-09-12T00:30:47.467Z,100.00
2022-09-12T00:33:16.804Z,100.00
2022-09-12T00:35:53.111Z,100.00
2022-09-12T00:38:21.025Z,100.00
2022-09-12T00:40:48.922Z,100.00
2022-09-12T00:43:44.792Z,100.00
2022-09-12T00:46:20.905Z,100.00
2022-09-12T00:48:55.896Z,100.00
2022-09-12T00:51:23.648Z,100.00
2022-09-12T00:53:53.946Z,100.00
2022-09-12T00:56:23.294Z,100.00
2022-09-12T00:59:04.892Z,100.00
2022-09-12T01:01:32.866Z,100.00
2022-09-12T01:04:00.982Z,100.00
2022-09-12T01:06:35.456Z,100.00
2022-09-12T01:09:04.962Z,100.00
2022-09-12T01:11:36.303Z,100.00
2022-09-12T01:14:06.688Z,100.00
2022-09-12T01:16:37.748Z,100.00
2022-09-12T01:19:33.086Z,100.00
2022-09-12T01:22:02.720Z,100.00
2022-09-12T01:24:54.489Z,100.00
2022-09-12T01:27:44.141Z,100.00
2022-09-12T01:30:20.068Z,100.00
2022-09-12T01:33:21.568Z,100.00
2022-09-12T01:36:24.318Z,100.00
2022-09-12T01:39:20.288Z,100.00
2022-09-12T01:41:56.080Z,100.00
2022-09-12T01:44:32.177Z,100.00
2022-09-12T01:47:19.041Z,100.00
2022-09-12T01:50:03.388Z,100.00
2022-09-12T01:52:53.930Z,100.00
2022-09-12T01:55:26.990Z,100.00
2022-09-12T01:58:02.758Z,100.00
2022-09-12T02:00:32.702Z,100.00
2022-09-12T02:03:10.118Z,100.00
2022-09-12T02:05:52.468Z,100.00
2022-09-12T02:08:26.056Z,100.00
2022-09-12T02:10:56.718Z,100.00
2022-09-12T02:13:31.873Z,100.00
2022-09-12T02:16:06.248Z,100.00
2022-09-12T02:18:34.749Z,100.00
2022-09-12T02:21:05.544Z,100.00
2022-09-12T02:23:36.992Z,100.00
2022-09-12T02:26:11.063Z,100.00
2022-09-12T02:28:42.526Z,100.00
2022-09-12T02:31:33.683Z,100.00
2022-09-12T02:34:15.634Z,100.00
2022-09-12T02:37:03.432Z,100.00
2022-09-12T02:39:30.397Z,100.00
2022-09-12T02:42:01.085Z,100.00
2022-09-12T02:44:30.060Z,100.00
2022-09-12T02:47:04.340Z,100.00
2022-09-12T02:49:31.531Z,100.00
2022-09-12T02:52:00.134Z,100.00
2022-09-12T02:54:28.324Z,100.00
2022-09-12T02:56:55.476Z,100.00
2022-09-12T02:59:24.609Z,100.00
2022-09-12T03:02:23.003Z,100.00
2022-09-12T03:05:31.123Z,100.00
2022-09-12T03:08:20.228Z,100.00
2022-09-12T03:11:20.967Z,100.00
2022-09-12T03:14:08.996Z,100.00
2022-09-12T03:16:58.739Z,100.00
2022-09-12T03:19:37.155Z,100.00
2022-09-12T03:22:09.849Z,100.00
2022-09-12T03:24:54.613Z,100.00
2022-09-12T03:27:30.175Z,100.00
2022-09-12T03:29:58.186Z,100.00
2022-09-12T03:32:48.132Z,100.00
2022-09-12T03:35:20.860Z,100.00
2022-09-12T03:37:50.994Z,100.00
2022-09-12T03:40:18.618Z,100.00
2022-09-12T03:42:45.569Z,100.00
2022-09-12T03:45:12.463Z,100.00
2022-09-12T03:47:40.321Z,100.00
2022-09-12T03:50:07.947Z,100.00
2022-09-12T03:52:35.201Z,100.00
2022-09-12T03:55:02.504Z,100.00
2022-09-12T03:57:29.451Z,100.00
2022-09-12T03:59:56.434Z,100.00
2022-09-12T04:02:23.553Z,100.00
2022-09-12T04:04:50.705Z,100.00
2022-09-12T04:07:17.756Z,100.00
2022-09-12T04:09:44.892Z,100.00
2022-09-12T04:12:12.856Z,100.00
2022-09-12T04:14:40.206Z,100.00
2022-09-12T04:17:07.294Z,100.00
2022-09-12T04:19:34.449Z,100.00
2022-09-12T04:22:01.485Z,100.00
2022-09-12T04:24:28.495Z,100.00
2022-09-12T04:26:55.572Z,100.00
2022-09-12T04:29:22.703Z,100.00
2022-09-12T04:31:49.998Z,100.00
2022-09-12T04:34:17.904Z,100.00
2022-09-12T04:36:44.953Z,100.00
2022-09-12T04:39:12.288Z,100.00
2022-09-12T04:41:41.925Z,100.00
2022-09-12T04:44:13.264Z,100.00
2022-09-12T04:46:44.760Z,100.00
2022-09-12T04:49:12.630Z,100.00
2022-09-12T04:51:41.208Z,100.00
2022-09-12T04:54:12.805Z,100.00
2022-09-12T04:56:42.434Z,100.00
2022-09-12T04:59:11.446Z,100.00
2022-09-12T05:01:39.094Z,100.00
2022-09-12T05:04:06.379Z,100.00
2022-09-12T05:06:35.701Z,100.00
2022-09-12T05:09:05.363Z,100.00
2022-09-12T05:12:02.099Z,100.00
2022-09-12T05:14:20.825Z,100.00
2022-09-12T05:16:49.605Z,100.00
2022-09-12T05:19:17.441Z,100.00
2022-09-12T05:21:46.722Z,100.00
2022-09-12T05:24:13.870Z,100.00
2022-09-12T05:26:40.767Z,100.00
2022-09-12T05:29:07.832Z,100.00
2022-09-12T05:31:35.480Z,100.00
2022-09-12T05:34:06.030Z,100.00
2022-09-12T05:36:33.451Z,100.00
2022-09-12T05:39:01.445Z,100.00
2022-09-12T05:41:34.099Z,100.00
2022-09-12T05:44:03.307Z,100.00
2022-09-12T05:46:32.894Z,100.00
2022-09-12T05:49:04.461Z,100.00
2022-09-12T05:51:34.579Z,100.00
2022-09-12T05:54:06.392Z,100.00
2022-09-12T05:56:37.218Z,100.00
2022-09-12T05:59:06.426Z,100.00
2022-09-12T06:01:35.075Z,100.00
2022-09-12T06:04:09.201Z,100.00
2022-09-12T06:06:41.664Z,100.00
2022-09-12T06:09:10.127Z,100.00
2022-09-12T06:11:40.334Z,100.00
2022-09-12T06:14:10.066Z,100.00
2022-09-12T06:16:37.939Z,100.00
2022-09-12T06:19:08.639Z,100.00
2022-09-12T06:21:35.787Z,100.00
2022-09-12T06:24:02.896Z,100.00
2022-09-12T06:26:30.646Z,100.00
2022-09-12T06:29:00.028Z,100.00
2022-09-12T06:31:30.258Z,100.00
2022-09-12T06:34:01.488Z,100.00
2022-09-12T06:36:34.611Z,100.00
2022-09-12T06:39:07.879Z,100.00
2022-09-12T06:41:35.066Z,100.00
2022-09-12T06:44:02.472Z,100.00
2022-09-12T06:46:31.274Z,100.00
2022-09-12T06:49:00.748Z,100.00
2022-09-12T06:51:29.501Z,100.00
2022-09-12T06:53:58.392Z,100.00
2022-09-12T06:56:27.645Z,100.00
2022-09-12T06:58:57.197Z,100.00
2022-09-12T07:01:27.118Z,100.00
2022-09-12T07:03:56.898Z,100.00
2022-09-12T07:06:25.005Z,100.00
2022-09-12T07:08:52.454Z,99.18
2022-09-12T07:11:24.550Z,98.70
2022-09-12T07:13:54.229Z,96.05
2022-09-12T07:16:21.198Z,97.45
2022-09-12T07:18:53.741Z,97.67
2022-09-12T07:21:21.534Z,98.22
2022-09-12T07:23:49.365Z,100.00
2022-09-12T07:26:17.331Z,97.12
2022-09-12T07:31:46.906Z,93.39
2022-09-12T07:34:14.121Z,97.20
2022-09-12T07:36:41.219Z,97.27
2022-09-12T07:39:10.912Z,97.21
2022-09-12T07:41:38.427Z,90.63
2022-09-12T07:44:07.188Z,87.74
2022-09-12T07:46:35.075Z,84.53
2022-09-12T07:49:05.799Z,87.28
2022-09-12T07:51:32.799Z,85.05
2022-09-12T07:54:01.590Z,87.24
2022-09-12T07:56:33.613Z,89.11
2022-09-12T07:59:06.019Z,83.35
2022-09-12T08:01:41.092Z,86.46
2022-09-12T08:04:08.375Z,83.53
2022-09-12T08:06:36.841Z,85.23
2022-09-12T08:09:05.507Z,81.68
2022-09-12T08:11:32.499Z,80.82
2022-09-12T08:14:00.257Z,83.93
2022-09-12T08:16:30.368Z,86.42
2022-09-12T08:18:58.658Z,86.21
2022-09-12T08:21:28.428Z,76.67
2022-09-12T08:23:56.874Z,74.80
2022-09-12T08:26:24.913Z,72.39
2022-09-12T08:28:53.623Z,75.32
2022-09-12T08:31:25.119Z,76.11
2022-09-12T08:33:52.641Z,76.69
2022-09-12T08:36:22.734Z,76.08
2022-09-12T08:38:59.906Z,75.46
2022-09-12T08:41:40.062Z,75.08
2022-09-12T08:44:37.350Z,74.09
2022-09-12T08:47:12.830Z,73.42
2022-09-12T08:49:59.553Z,75.02
2022-09-12T08:52:26.826Z,73.36
2022-09-12T08:54:56.506Z,73.71
2022-09-12T08:57:24.425Z,73.47
2022-09-12T08:59:53.097Z,70.47
2022-09-12T09:02:38.440Z,71.05
2022-09-12T09:05:36.215Z,69.29
2022-09-12T09:08:06.071Z,71.11
2022-09-12T09:10:59.924Z,71.39
2022-09-12T09:13:48.276Z,69.12
2022-09-12T09:16:26.130Z,68.04
2022-09-12T09:18:57.438Z,66.45
2022-09-12T09:21:31.861Z,62.80
2022-09-12T09:24:07.079Z,61.56
2022-09-12T09:26:47.204Z,64.29
2022-09-12T09:29:23.084Z,62.83
2022-09-12T09:31:54.736Z,59.79
2022-09-12T09:34:23.778Z,60.77
2022-09-12T09:37:09.921Z,61.86
2022-09-12T09:39:54.201Z,63.75
2022-09-12T09:43:04.565Z,61.74
2022-09-12T09:45:31.792Z,62.44
2022-09-12T09:48:11.436Z,60.29
2022-09-12T09:50:49.305Z,59.30
2022-09-12T09:53:35.330Z,60.01
2022-09-12T09:56:09.890Z,60.11
2022-09-12T09:58:38.028Z,61.13
2022-09-12T10:01:12.643Z,59.35
2022-09-12T10:03:40.601Z,60.69
2022-09-12T10:06:23.588Z,59.17
2022-09-12T10:08:51.076Z,57.52
2022-09-12T10:11:22.920Z,59.31
2022-09-12T10:14:00.098Z,57.05
2022-09-12T10:16:48.329Z,52.94
2022-09-12T10:19:24.845Z,54.65
2022-09-12T10:21:54.575Z,57.57
2022-09-12T10:24:28.725Z,54.72
2022-09-12T10:27:13.379Z,57.64
2022-09-12T10:29:54.786Z,53.83
2022-09-12T10:32:30.705Z,54.17
2022-09-12T10:35:04.536Z,51.69
2022-09-12T10:37:39.740Z,51.00
2022-09-12T10:40:20.948Z,52.93
2022-09-12T10:42:57.452Z,48.55
2022-09-12T10:45:37.969Z,47.94
2022-09-12T10:48:31.993Z,48.33
2022-09-12T10:51:00.378Z,54.64
2022-09-12T10:53:45.806Z,48.46
2022-09-12T10:56:22.806Z,50.86
2022-09-12T10:59:16.891Z,46.99
2022-09-12T11:01:50.822Z,48.30
2022-09-12T11:04:42.134Z,48.09
2022-09-12T11:07:41.374Z,45.28
2022-09-12T11:10:32.044Z,46.60
2022-09-12T11:13:23.871Z,49.96
2022-09-12T11:16:16.718Z,45.07
2022-09-12T11:18:49.409Z,45.03
2022-09-12T11:21:45.772Z,43.26
2022-09-12T11:24:50.366Z,43.48
2022-09-12T11:27:46.775Z,48.16
2022-09-12T11:30:18.210Z,42.20
2022-09-12T11:33:09.613Z,46.35
2022-09-12T11:35:54.983Z,46.50
2022-09-12T11:38:43.712Z,43.55
2022-09-12T11:41:23.922Z,42.08
2022-09-12T11:44:04.959Z,41.08
2022-09-12T11:46:36.876Z,43.42
2022-09-12T11:49:09.785Z,39.57
2022-09-12T11:51:50.833Z,38.38
2022-09-12T11:54:28.683Z,38.79
2022-09-12T11:57:17.051Z,40.14
2022-09-12T11:59:50.250Z,37.58
2022-09-12T12:02:29.137Z,37.90
2022-09-12T12:05:16.154Z,39.42
2022-09-12T12:07:52.678Z,39.62
2022-09-12T12:10:36.458Z,40.28
2022-09-12T12:13:13.346Z,40.17
2022-09-12T12:15:47.561Z,38.96
2022-09-12T12:18:37.011Z,37.90
2022-09-12T12:21:52.393Z,36.86
2022-09-12T12:24:22.865Z,37.18
2022-09-12T12:27:00.589Z,37.19
2022-09-12T12:29:43.551Z,38.39
2022-09-12T12:32:10.710Z,38.19
2022-09-12T12:34:42.483Z,39.00
2022-09-12T12:37:28.227Z,36.32
2022-09-12T12:40:02.992Z,37.83
2022-09-12T12:42:35.592Z,39.13
2022-09-12T12:45:08.721Z,41.31
2022-09-12T12:47:38.620Z,40.45
2022-09-12T12:50:08.075Z,40.13
2022-09-12T12:53:05.152Z,41.63
2022-09-12T12:55:38.802Z,41.55
2022-09-12T12:58:08.881Z,41.82
2022-09-12T13:00:40.085Z,41.86
2022-09-12T13:03:07.189Z,42.75
2022-09-12T13:05:49.309Z,43.24
2022-09-12T13:08:18.872Z,42.64
2022-09-12T13:11:12.063Z,41.88
2022-09-12T13:13:45.557Z,40.89
2022-09-12T13:16:36.379Z,41.26
2022-09-12T13:19:22.074Z,42.29
2022-09-12T13:22:02.841Z,42.72
2022-09-12T13:24:30.058Z,42.01
2022-09-12T13:26:57.928Z,41.18
2022-09-12T13:29:27.058Z,39.81
2022-09-12T13:32:02.847Z,40.13
2022-09-12T13:34:34.340Z,39.73
2022-09-12T13:37:37.628Z,40.95
2022-09-12T13:40:36.773Z,41.20
2022-09-12T13:43:36.093Z,40.17
2022-09-12T13:46:03.309Z,40.17
2022-09-12T13:48:30.732Z,38.90
2022-09-12T13:51:00.854Z,37.36
2022-09-12T13:53:36.809Z,37.30
2022-09-12T13:56:03.960Z,38.63
2022-09-12T13:58:33.761Z,39.29
2022-09-12T14:01:15.231Z,38.90
2022-09-12T14:04:07.725Z,40.29
2022-09-12T14:06:45.329Z,40.36
2022-09-12T14:09:49.260Z,40.04
2022-09-12T14:12:27.341Z,40.71
2022-09-12T14:14:54.450Z,40.68
2022-09-12T14:17:32.957Z,40.80
2022-09-12T14:20:14.461Z,41.36
2022-09-12T14:22:41.951Z,41.75
2022-09-12T14:25:16.356Z,41.28
2022-09-12T14:27:48.068Z,41.92
2022-09-12T14:30:39.287Z,43.03
2022-09-12T14:33:12.231Z,43.87
2022-09-12T14:35:45.282Z,43.75
2022-09-12T14:38:17.189Z,44.29
2022-09-12T14:40:58.617Z,44.16
2022-09-12T14:43:32.259Z,44.15
2022-09-12T14:46:30.122Z,42.75
2022-09-12T14:49:06.888Z,41.01
2022-09-12T14:51:38.363Z,40.24
2022-09-12T14:54:05.505Z,42.41
2022-09-12T14:56:45.179Z,42.21
2022-09-12T14:59:30.638Z,41.94
2022-09-12T15:02:19.291Z,42.07
2022-09-12T15:05:08.934Z,42.26
2022-09-12T15:07:40.291Z,41.63
2022-09-12T15:10:22.141Z,42.27
2022-09-12T15:12:49.477Z,41.21
2022-09-12T15:15:19.461Z,41.66
2022-09-12T15:17:46.783Z,42.21
2022-09-12T15:20:14.906Z,42.71
2022-09-12T15:22:42.487Z,42.84
2022-09-12T15:25:12.514Z,41.52
2022-09-12T15:27:41.064Z,42.62
2022-09-12T15:30:13.358Z,42.26
2022-09-12T15:32:42.401Z,42.73
2022-09-12T15:35:25.748Z,42.32
2022-09-12T15:37:52.944Z,42.40
2022-09-12T15:40:20.281Z,42.76
2022-09-12T15:42:47.319Z,42.79
2022-09-12T15:45:22.098Z,43.17
2022-09-12T15:47:49.281Z,43.55
2022-09-12T15:50:16.621Z,42.93
2022-09-12T15:52:44.370Z,43.68
2022-09-12T15:55:17.980Z,44.10
2022-09-12T15:57:45.895Z,43.82
2022-09-12T16:00:17.907Z,44.53
2022-09-12T16:02:47.638Z,43.76
2022-09-12T16:05:18.410Z,44.19
2022-09-12T16:07:45.433Z,44.54
2022-09-12T16:10:19.854Z,44.98
2022-09-12T16:12:47.079Z,45.11
2022-09-12T16:15:20.135Z,45.85
2022-09-12T16:17:47.077Z,45.55
2022-09-12T16:20:14.356Z,45.69
2022-09-12T16:22:42.173Z,46.14
2022-09-12T16:25:09.675Z,44.57
2022-09-12T16:27:37.339Z,44.34
2022-09-12T16:30:06.497Z,44.63
2022-09-12T16:32:34.005Z,44.78
2022-09-12T16:35:01.118Z,46.31
2022-09-12T16:37:28.649Z,47.43
2022-09-12T16:39:55.849Z,48.55
2022-09-12T16:42:23.146Z,48.38
2022-09-12T16:44:50.181Z,49.32
2022-09-12T16:47:17.174Z,49.83
2022-09-12T16:49:44.105Z,50.45
2022-09-12T16:52:11.602Z,51.57
2022-09-12T16:54:38.667Z,52.31
2022-09-12T16:57:06.673Z,53.02
2022-09-12T16:59:33.736Z,53.64
2022-09-12T17:02:00.785Z,55.27
2022-09-12T17:04:28.211Z,55.26
2022-09-12T17:06:55.332Z,56.71
2022-09-12T17:09:22.335Z,56.65
2022-09-12T17:11:50.422Z,57.08
2022-09-12T17:14:17.577Z,57.68
2022-09-12T17:16:51.516Z,58.33
2022-09-12T17:19:26.725Z,59.21
2022-09-12T17:21:54.664Z,60.55
2022-09-12T17:24:22.105Z,60.11
2022-09-12T17:26:50.219Z,59.92
2022-09-12T17:29:18.253Z,59.85
2022-09-12T17:31:46.031Z,60.79
2022-09-12T17:34:17.859Z,61.51
2022-09-12T17:36:46.000Z,61.95
2022-09-12T17:39:13.794Z,62.41
2022-09-12T17:41:43.126Z,62.64
2022-09-12T17:44:15.276Z,62.55
2022-09-12T17:46:42.621Z,62.64
2022-09-12T17:49:15.675Z,63.08
2022-09-12T17:51:44.080Z,62.69
2022-09-12T17:54:15.787Z,63.71
2022-09-12T17:56:44.474Z,64.19
2022-09-12T17:59:22.018Z,65.85
2022-09-12T18:02:09.495Z,65.27
2022-09-12T18:04:36.639Z,65.08
2022-09-12T18:07:04.385Z,64.99
2022-09-12T18:09:32.820Z,65.21
2022-09-12T18:11:59.878Z,65.15
2022-09-12T18:14:28.378Z,64.27
2022-09-12T18:16:57.407Z,63.59
2022-09-12T18:19:24.819Z,63.06
2022-09-12T18:21:51.804Z,64.39
2022-09-12T18:24:19.224Z,64.59
2022-09-12T18:26:46.399Z,64.65
2022-09-12T18:29:16.969Z,65.17
2022-09-12T18:31:45.034Z,65.53
2022-09-12T18:34:13.847Z,65.38
2022-09-12T18:36:42.168Z,66.02
2022-09-12T18:39:11.106Z,66.18
2022-09-12T18:41:39.143Z,66.36
2022-09-12T18:44:07.048Z,66.13
2022-09-12T18:46:35.462Z,67.02
2022-09-12T18:49:02.650Z,66.76
2022-09-12T18:51:33.640Z,66.82
2022-09-12T18:54:03.760Z,67.52
2022-09-12T18:56:33.100Z,67.26
2022-09-12T18:59:02.319Z,68.04
2022-09-12T19:01:35.477Z,68.54
2022-09-12T19:04:06.151Z,69.19
2022-09-12T19:06:39.321Z,69.46
2022-09-12T19:09:10.693Z,69.03
2022-09-12T19:11:39.942Z,69.69
2022-09-12T19:14:07.837Z,69.91
2022-09-12T19:16:35.351Z,70.14
2022-09-12T19:19:03.192Z,70.20
2022-09-12T19:21:31.744Z,71.08
2022-09-12T19:24:05.782Z,70.80
2022-09-12T19:26:33.516Z,71.72
2022-09-12T19:29:03.052Z,72.21
2022-09-12T19:31:31.653Z,72.69
2022-09-12T19:34:04.507Z,73.15
2022-09-12T19:36:47.767Z,73.77
2022-09-12T19:39:16.708Z,74.03
2022-09-12T19:41:44.360Z,75.05
2022-09-12T19:44:11.801Z,75.37
2022-09-12T19:46:38.969Z,76.16
2022-09-12T19:49:06.017Z,75.42
2022-09-12T19:51:32.980Z,75.20
2022-09-12T19:53:59.991Z,76.66
2022-09-12T19:56:26.999Z,76.89
2022-09-12T19:58:56.709Z,77.87
2022-09-12T20:01:25.136Z,79.05
2022-09-12T20:03:55.552Z,79.78
2022-09-12T20:06:22.736Z,80.07
2022-09-12T20:08:49.818Z,80.84
2022-09-12T20:11:19.246Z,82.02
2022-09-12T20:13:46.902Z,83.20
2022-09-12T20:16:22.025Z,83.13
2022-09-12T20:18:57.679Z,82.42
2022-09-12T20:21:31.771Z,82.98
2022-09-12T20:24:11.127Z,84.11
2022-09-12T20:26:38.332Z,83.39
2022-09-12T20:29:06.495Z,84.70
2022-09-12T20:31:34.357Z,82.70
2022-09-12T20:34:01.339Z,83.34
2022-09-12T20:36:28.804Z,83.77
2022-09-12T20:38:58.720Z,85.62
2022-09-12T20:41:28.800Z,85.21
2022-09-12T20:43:56.994Z,86.43
2022-09-12T20:46:25.813Z,85.09
2022-09-12T20:48:53.367Z,85.70
2022-09-12T20:51:21.982Z,84.58
2022-09-12T20:53:53.836Z,84.51
2022-09-12T20:56:21.807Z,83.78
2022-09-12T20:58:48.849Z,84.45
2022-09-12T21:01:16.860Z,86.58
2022-09-12T21:03:44.613Z,85.85
2022-09-12T21:06:13.423Z,85.31
2022-09-12T21:08:40.497Z,83.64
2022-09-12T21:11:07.741Z,83.26
2022-09-12T21:13:35.145Z,82.61
2022-09-12T21:16:12.959Z,83.26
2022-09-12T21:18:41.261Z,83.53
2022-09-12T21:21:09.597Z,85.06
2022-09-12T21:23:36.691Z,85.28
2022-09-12T21:26:04.151Z,85.21
2022-09-12T21:28:31.320Z,86.37
2022-09-12T21:30:58.455Z,85.33
2022-09-12T21:33:25.930Z,83.85
2022-09-12T21:35:52.861Z,83.91
2022-09-12T21:38:20.151Z,83.74
2022-09-12T21:40:47.947Z,84.14
2022-09-12T21:43:15.483Z,83.01
2022-09-12T21:45:42.460Z,82.60
2022-09-12T21:48:10.329Z,83.39
2022-09-12T21:50:37.245Z,83.61
2022-09-12T21:53:04.209Z,85.58
2022-09-12T21:55:31.382Z,86.92
2022-09-12T21:57:58.421Z,88.10
2022-09-12T22:00:25.591Z,89.06
2022-09-12T22:02:53.907Z,89.32
2022-09-12T22:05:21.452Z,89.38
2022-09-12T22:07:48.448Z,90.03
2022-09-12T22:10:15.536Z,91.21
2022-09-12T22:12:46.056Z,91.90
2022-09-12T22:15:38.824Z,89.95
2022-09-12T22:18:01.175Z,90.30
2022-09-12T22:20:28.143Z,90.14
2022-09-12T22:23:13.983Z,91.46
2022-09-12T22:25:41.206Z,91.14
2022-09-12T22:28:10.639Z,90.76
2022-09-12T22:30:38.789Z,90.46
2022-09-12T22:33:05.928Z,89.59
2022-09-12T22:35:33.015Z,89.37
2022-09-12T22:38:00.098Z,90.04
2022-09-12T22:40:27.076Z,89.78
2022-09-12T22:42:55.157Z,91.27
2022-09-12T22:45:22.269Z,90.58
2022-09-12T22:47:49.223Z,91.42
2022-09-12T22:50:16.257Z,91.35
2022-09-12T22:52:43.196Z,92.01
2022-09-12T22:55:10.715Z,92.32
2022-09-12T22:57:38.016Z,94.72
2022-09-12T23:00:10.693Z,96.13
2022-09-12T23:02:38.359Z,97.05
2022-09-12T23:05:06.229Z,97.97
2022-09-12T23:07:33.665Z,99.07
2022-09-12T23:10:00.718Z,99.29
2022-09-12T23:12:27.664Z,99.47
2022-09-12T23:14:54.723Z,100.00
2022-09-12T23:17:21.640Z,100.00
2022-09-12T23:19:48.599Z,100.00
2022-09-12T23:22:15.606Z,100.00
2022-09-12T23:24:42.580Z,100.00
2022-09-12T23:27:09.541Z,99.20
2022-09-12T23:29:36.547Z,96.83
2022-09-12T23:32:04.341Z,96.77
2022-09-12T23:34:31.403Z,96.72
2022-09-12T23:36:58.391Z,96.10
2022-09-12T23:39:25.336Z,97.00
2022-09-12T23:41:52.333Z,97.45
2022-09-12T23:44:19.335Z,97.07
2022-09-12T23:46:46.305Z,97.99
2022-09-12T23:49:13.239Z,98.16
2022-09-12T23:51:40.233Z,99.30
2022-09-12T23:54:07.214Z,98.41
2022-09-12T23:56:34.393Z,97.47
2022-09-12T23:59:01.444Z,98.25
